createdAt,value
2022-11-28T00:00:02.010Z,10.25
2022-11-28T00:05:15.252Z,15.23
2022-11-28T00:10:18.057Z,14.43
2022-11-28T00:15:20.826Z,11.80
2022-11-28T00:20:23.684Z,2.42
2022-11-28T00:25:26.522Z,8.63
2022-11-28T00:30:29.163Z,14.15
2022-11-28T00:35:31.863Z,15.55
2022-11-28T00:40:34.529Z,13.75
2022-11-28T00:45:37.376Z,10.95
2022-11-28T00:50:40.114Z,14.82
2022-11-28T00:55:42.745Z,11.50
2022-11-28T01:00:45.503Z,10.65
2022-11-28T01:05:48.224Z,12.73
2022-11-28T01:10:50.868Z,12.68
2022-11-28T01:15:53.761Z,13.13
2022-11-28T01:20:56.525Z,9.65
2022-11-28T01:25:59.343Z,13.27
2022-11-28T01:31:10.045Z,8.18
2022-11-28T01:36:14.026Z,1.13
2022-11-28T01:41:19.069Z,14.00
2022-11-28T01:46:21.981Z,15.50
2022-11-28T01:51:25.109Z,13.10
2022-11-28T01:56:30.686Z,12.60
2022-11-28T02:01:33.424Z,9.85
2022-11-28T02:06:36.620Z,17.58
2022-11-28T02:11:59.877Z,15.05
2022-11-28T02:17:27.167Z,14.15
2022-11-28T02:22:37.352Z,13.40
2022-11-28T02:28:08.129Z,9.38
2022-11-28T02:38:48.594Z,11.70
2022-11-28T02:44:17.445Z,13.63
2022-11-28T02:49:47.828Z,14.75
2022-11-28T02:54:51.737Z,9.35
2022-11-28T02:59:55.867Z,14.43
2022-11-28T03:05:14.518Z,12.13
2022-11-28T03:10:23.946Z,10.82
2022-11-28T03:15:33.254Z,10.95
2022-11-28T03:20:57.864Z,11.48
2022-11-28T03:26:06.220Z,12.35
2022-11-28T03:31:15.885Z,11.60
2022-11-28T03:36:28.174Z,11.70
2022-11-28T03:41:45.053Z,15.88
2022-11-28T03:46:49.364Z,15.15
2022-11-28T03:52:13.738Z,18.27
2022-11-28T03:57:31.412Z,11.93
2022-11-28T04:02:57.171Z,10.73
2022-11-28T04:08:16.271Z,12.95
2022-11-28T04:13:32.643Z,12.55
2022-11-28T04:18:57.013Z,10.82
2022-11-28T04:24:04.028Z,9.18
2022-11-28T04:29:10.639Z,10.20
2022-11-28T04:34:16.649Z,10.48
2022-11-28T04:39:22.211Z,12.23
2022-11-28T04:44:27.964Z,13.32
2022-11-28T04:49:31.149Z,14.07
2022-11-28T04:54:33.757Z,12.38
2022-11-28T04:59:36.610Z,12.50
2022-11-28T05:04:39.555Z,7.55
2022-11-28T05:09:42.289Z,12.32
2022-11-28T05:14:45.048Z,11.02
2022-11-28T05:19:47.781Z,11.15
2022-11-28T05:24:50.582Z,5.60
2022-11-28T05:29:54.233Z,11.05
2022-11-28T05:34:56.966Z,12.27
2022-11-28T05:39:59.752Z,11.77
2022-11-28T05:45:02.680Z,11.35
2022-11-28T05:50:06.852Z,10.05
2022-11-28T05:55:09.899Z,8.60
2022-11-28T06:00:14.748Z,13.55
2022-11-28T06:05:41.054Z,13.95
2022-11-28T06:10:40.590Z,8.40
2022-11-28T06:15:45.163Z,10.75
2022-11-28T06:20:47.898Z,13.65
2022-11-28T06:25:50.652Z,12.35
2022-11-28T06:30:53.290Z,14.57
2022-11-28T06:36:01.344Z,12.00
2022-11-28T06:41:10.028Z,13.48
2022-11-28T06:46:19.357Z,7.80
2022-11-28T06:51:22.907Z,11.80
2022-11-28T06:56:25.884Z,6.88
2022-11-28T07:01:31.202Z,5.90
2022-11-28T07:06:34.555Z,11.63
2022-11-28T07:11:37.266Z,11.13
2022-11-28T07:16:40.027Z,6.38
2022-11-28T07:21:42.863Z,10.73
2022-11-28T07:26:47.311Z,7.60
2022-11-28T07:31:50.020Z,12.20
2022-11-28T07:36:52.717Z,11.73
2022-11-28T07:41:55.531Z,4.53
2022-11-28T07:46:58.360Z,11.52
2022-11-28T07:52:01.687Z,12.73
2022-11-28T07:57:12.350Z,9.57
2022-11-28T08:02:16.143Z,10.47
2022-11-28T08:07:20.065Z,9.45
2022-11-28T08:12:22.821Z,12.85
2022-11-28T08:17:25.544Z,11.20
2022-11-28T08:22:28.720Z,7.88
2022-11-28T08:27:32.649Z,10.30
2022-11-28T08:32:35.641Z,12.57
2022-11-28T08:37:38.380Z,10.20
2022-11-28T08:42:41.446Z,11.02
2022-11-28T08:47:44.277Z,9.07
2022-11-28T08:52:46.939Z,11.20
2022-11-28T08:57:49.612Z,7.32
2022-11-28T09:02:52.232Z,14.18
2022-11-28T09:07:55.597Z,9.07
2022-11-28T09:12:58.351Z,13.05
2022-11-28T09:18:01.316Z,13.60
2022-11-28T09:23:03.996Z,12.27
2022-11-28T09:28:07.710Z,4.47
2022-11-28T09:33:10.380Z,7.85
2022-11-28T09:38:13.053Z,12.68
2022-11-28T09:43:27.392Z,14.63
2022-11-28T09:48:45.211Z,4.47
2022-11-28T09:54:16.511Z,15.32
2022-11-28T10:05:03.111Z,13.18
2022-11-28T10:10:24.854Z,12.10
2022-11-28T10:15:39.063Z,18.65
2022-11-28T10:20:46.699Z,15.18
2022-11-28T10:26:07.008Z,17.10
2022-11-28T10:31:16.961Z,16.77
2022-11-28T10:36:34.034Z,18.48
2022-11-28T10:42:26.243Z,18.42
2022-11-28T10:47:45.062Z,16.35
2022-11-28T10:53:02.023Z,8.90
2022-11-28T10:58:44.017Z,17.98
2022-11-28T11:03:47.027Z,19.80
2022-11-28T11:08:49.753Z,13.38
2022-11-28T11:14:08.774Z,17.60
2022-11-28T11:19:27.571Z,16.35
2022-11-28T11:24:30.642Z,12.43
2022-11-28T11:29:36.313Z,14.05
2022-11-28T11:34:46.203Z,19.38
2022-11-28T11:39:51.593Z,19.25
2022-11-28T11:44:54.935Z,14.20
2022-11-28T11:50:04.786Z,15.82
2022-11-28T11:55:16.962Z,20.30
2022-11-28T12:00:21.842Z,17.38
2022-11-28T12:05:59.013Z,20.65
2022-11-28T12:11:18.446Z,20.55
2022-11-28T12:16:45.332Z,21.23
2022-11-28T12:21:48.291Z,18.95
2022-11-28T12:26:54.018Z,18.15
2022-11-28T12:32:10.663Z,16.27
2022-11-28T12:37:48.311Z,10.32
2022-11-28T12:43:29.429Z,20.20
2022-11-28T12:48:38.916Z,16.50
2022-11-28T12:53:46.892Z,14.68
2022-11-28T12:59:00.000Z,13.82
2022-11-28T13:04:20.680Z,19.90
2022-11-28T13:09:37.277Z,18.20
2022-11-28T13:14:49.207Z,19.15
2022-11-28T13:20:15.251Z,13.88
2022-11-28T13:25:47.900Z,17.38
2022-11-28T13:30:57.841Z,15.85
2022-11-28T13:36:01.848Z,24.52
2022-11-28T13:41:35.327Z,25.20
2022-11-28T13:46:35.015Z,19.67
2022-11-28T13:51:38.222Z,21.35
2022-11-28T13:56:41.019Z,21.38
2022-11-28T14:01:48.655Z,10.95
2022-11-28T14:07:00.361Z,19.80
2022-11-28T14:12:18.616Z,16.35
2022-11-28T14:17:45.551Z,18.75
2022-11-28T14:23:14.032Z,19.67
2022-11-28T14:28:28.330Z,19.45
2022-11-28T14:33:40.375Z,14.55
2022-11-28T14:38:44.986Z,16.27
2022-11-28T14:43:49.284Z,16.73
2022-11-28T14:49:01.057Z,19.92
2022-11-28T14:54:04.147Z,20.45
2022-11-28T14:59:11.033Z,19.38
2022-11-28T15:04:35.734Z,19.33
2022-11-28T15:09:47.825Z,19.98
2022-11-28T15:19:56.304Z,19.58
2022-11-28T15:24:59.550Z,18.00
2022-11-28T15:30:03.916Z,11.80
2022-11-28T15:35:12.821Z,23.33
2022-11-28T15:40:26.241Z,16.45
2022-11-28T15:45:31.661Z,16.77
2022-11-28T15:50:34.889Z,23.88
2022-11-28T15:55:37.612Z,23.55
2022-11-28T16:00:42.348Z,16.02
2022-11-28T16:05:46.295Z,22.85
2022-11-28T16:10:49.141Z,18.52
2022-11-28T16:15:53.260Z,13.80
2022-11-28T16:20:57.752Z,16.17
2022-11-28T16:26:08.691Z,8.93
2022-11-28T16:31:19.855Z,17.98
2022-11-28T16:36:37.601Z,20.80
2022-11-28T16:41:52.270Z,24.08
2022-11-28T16:46:57.591Z,25.13
2022-11-28T16:52:34.114Z,23.85
2022-11-28T16:57:47.261Z,22.73
2022-11-28T17:02:53.468Z,15.95
2022-11-28T17:07:56.426Z,14.52
2022-11-28T17:12:59.152Z,25.15
2022-11-28T17:18:01.826Z,23.40
2022-11-28T17:23:04.951Z,16.67
2022-11-28T17:28:09.680Z,18.35
2022-11-28T17:33:16.438Z,22.52
2022-11-28T17:38:20.461Z,23.20
2022-11-28T17:43:23.228Z,24.10
2022-11-28T17:48:25.914Z,21.85
2022-11-28T17:53:28.583Z,23.25
2022-11-28T17:58:31.504Z,18.90
2022-11-28T18:03:34.151Z,22.70
2022-11-28T18:08:36.824Z,23.52
2022-11-28T18:13:42.698Z,23.50
2022-11-28T18:18:45.936Z,20.75
2022-11-28T18:23:50.944Z,21.13
2022-11-28T18:28:54.671Z,21.30
2022-11-28T18:34:02.614Z,24.63
2022-11-28T18:39:11.941Z,19.27
2022-11-28T18:44:14.707Z,24.23
2022-11-28T18:49:19.453Z,11.98
2022-11-28T18:54:23.702Z,27.23
2022-11-28T18:59:26.572Z,25.80
2022-11-28T19:04:29.263Z,21.60
2022-11-28T19:09:32.136Z,26.95
2022-11-28T19:14:34.870Z,21.13
2022-11-28T19:19:40.182Z,22.42
2022-11-28T19:24:42.779Z,26.83
2022-11-28T19:29:45.821Z,27.20
2022-11-28T19:34:52.666Z,25.70
2022-11-28T19:39:59.706Z,19.83
2022-11-28T19:45:06.218Z,27.23
2022-11-28T19:50:10.561Z,25.80
2022-11-28T19:55:13.274Z,21.58
2022-11-28T20:00:16.618Z,19.95
2022-11-28T20:05:22.632Z,23.23
2022-11-28T20:10:25.986Z,29.02
2022-11-28T20:15:28.971Z,26.88
2022-11-28T20:20:31.733Z,24.80
2022-11-28T20:25:34.623Z,24.00
2022-11-28T20:30:38.419Z,29.20
2022-11-28T20:35:41.085Z,26.27
2022-11-28T20:40:43.993Z,25.67
2022-11-28T20:45:46.747Z,27.23
2022-11-28T20:50:49.437Z,29.17
2022-11-28T20:56:05.128Z,23.45
2022-11-28T21:01:08.321Z,12.18
2022-11-28T21:06:11.594Z,29.85
2022-11-28T21:11:36.919Z,27.67
2022-11-28T21:16:42.486Z,23.40
2022-11-28T21:21:45.228Z,25.40
2022-11-28T21:26:52.900Z,29.70
2022-11-28T21:31:56.519Z,27.42
2022-11-28T21:36:59.220Z,27.08
2022-11-28T21:42:02.728Z,33.80
2022-11-28T21:47:05.926Z,26.58
2022-11-28T21:52:09.825Z,14.90
2022-11-28T21:57:12.457Z,27.20
2022-11-28T22:02:15.884Z,18.92
2022-11-28T22:07:18.761Z,15.23
2022-11-28T22:12:22.074Z,26.63
2022-11-28T22:17:25.545Z,22.05
2022-11-28T22:22:29.016Z,28.38
2022-11-28T22:27:32.742Z,28.63
2022-11-28T22:32:35.668Z,21.35
2022-11-28T22:37:38.757Z,23.40
2022-11-28T22:42:41.436Z,18.45
2022-11-28T22:47:44.186Z,26.25
2022-11-28T22:52:46.887Z,26.20
2022-11-28T22:57:49.581Z,29.45
2022-11-28T23:02:52.321Z,24.70
2022-11-28T23:07:55.599Z,30.23
2022-11-28T23:12:58.471Z,27.42
2022-11-28T23:18:01.592Z,23.77
2022-11-28T23:23:04.474Z,20.50
2022-11-28T23:28:07.693Z,9.52
2022-11-28T23:33:10.387Z,26.08
2022-11-28T23:38:13.240Z,23.77
2022-11-28T23:43:15.905Z,20.30
2022-11-28T23:48:18.890Z,27.30
2022-11-28T23:53:21.825Z,23.38
2022-11-28T23:58:24.559Z,19.63
